KGRB

Green Bay-Austin Straubel International Airport

Green Bay, Wisconsin, USA
KGRB 181247Z 1813/1912 23007KT P6SM -RA SCT010 OVC120 FM181600 02010KT 6SM -SHRA BKN030 FM182100 03010KT 6SM -SHRA BKN035 FM190000 05010KT P6SM BKN040 FM190300 04007KT P6SM OVC060 FM190900 03005KT P6SM OVC090
Issued Valid From Valid To
Jun-18 @ 12:47 UTC
(36 minutes ago)
Jun-18 @ 13:00 UTC
(23 minutes ago)
Jun-19 @ 12:00 UTC
(in 23 hours)
Jun-18 @ 13:00 to Jun-18 @ 16:00
KGRB 181247Z 1813/1912 23007KT P6SM -RA SCT010 OVC120
Wind Visibility Clouds Conditions
230° at 7 knots Greater than 6 miles
  • Scattered at 1,000' AGL
  • Overcast at 12,000' AGL
  • Light Rain
From Jun-18 @ 16:00 to Jun-18 @ 21:00
FM181600 02010KT 6SM -SHRA BKN030
Wind Visibility Clouds Conditions
20° at 10 knots 6 miles
  • Broken at 3,000' AGL
  • Light Rain
From Jun-18 @ 21:00 to Jun-19 @ 00:00
FM182100 03010KT 6SM -SHRA BKN035
Wind Visibility Clouds Conditions
30° at 10 knots 6 miles
  • Broken at 3,500' AGL
  • Light Rain
From Jun-19 @ 00:00 to Jun-19 @ 03:00
FM190000 05010KT P6SM BKN040
Wind Visibility Clouds
50° at 10 knots Greater than 6 miles
  • Broken at 4,000' AGL
From Jun-19 @ 03:00 to Jun-19 @ 09:00
FM190300 04007KT P6SM OVC060
Wind Visibility Clouds
40° at 7 knots Greater than 6 miles
  • Overcast at 6,000' AGL
From Jun-19 @ 09:00 to Jun-19 @ 12:00
FM190900 03005KT P6SM OVC090
Wind Visibility Clouds
30° at 5 knots Greater than 6 miles
  • Overcast at 9,000' AGL
KGRB 181247Z 1813/1912 23007KT P6SM -RA SCT010 OVC120 FM181600 02010KT 6SM -SHRA BKN030 FM182100 03010KT 6SM -SHRA BKN035 FM190000 05010KT P6SM BKN040 FM190300 04007KT P6SM OVC060 FM190900 03005KT P6SM OVC090
Issued Jun-18 @ 12:47 UTC
(36 minutes ago)
Valid From Jun-18 @ 13:00 UTC
(23 minutes ago)
Valid To Jun-19 @ 12:00 UTC
(in 23 hours)
Jun-18 @ 13:00 - Jun-18 @ 16:00
Wind Visibility
230° at 7 knots Greater than 6 miles
Clouds
  • Scattered at 1,000' AGL
  • Overcast at 12,000' AGL
Conditions
  • Light Rain
From Jun-18 @ 16:00 - Jun-18 @ 21:00
Wind Visibility
20° at 10 knots 6 miles
Clouds
  • Broken at 3,000' AGL
Conditions
  • Light Rain
From Jun-18 @ 21:00 - Jun-19 @ 00:00
Wind Visibility
30° at 10 knots 6 miles
Clouds
  • Broken at 3,500' AGL
Conditions
  • Light Rain
From Jun-19 @ 00:00 - Jun-19 @ 03:00
Wind Visibility
50° at 10 knots Greater than 6 miles
Clouds
  • Broken at 4,000' AGL
From Jun-19 @ 03:00 - Jun-19 @ 09:00
Wind Visibility
40° at 7 knots Greater than 6 miles
Clouds
  • Overcast at 6,000' AGL
From Jun-19 @ 09:00 - Jun-19 @ 12:00
Wind Visibility
30° at 5 knots Greater than 6 miles
Clouds
  • Overcast at 9,000' AGL